sensor_id;sensor_type;location;lat;lon;timestamp;P1;durP1;ratioP1;P2;durP2;ratioP2
69310;SDS011;56430;48.154;16.458;2022-10-28T00:01:42;37.95;;;11.00;;
69310;SDS011;56430;48.154;16.458;2022-10-28T00:04:09;29.17;;;9.93;;
69310;SDS011;56430;48.154;16.458;2022-10-28T00:06:38;32.78;;;9.45;;
69310;SDS011;56430;48.154;16.458;2022-10-28T00:09:05;25.75;;;9.35;;
69310;SDS011;56430;48.154;16.458;2022-10-28T00:11:33;27.77;;;9.85;;
69310;SDS011;56430;48.154;16.458;2022-10-28T00:14:01;29.75;;;9.27;;
69310;SDS011;56430;48.154;16.458;2022-10-28T00:16:31;22.80;;;8.60;;
69310;SDS011;56430;48.154;16.458;2022-10-28T00:18:59;26.95;;;9.45;;
69310;SDS011;56430;48.154;16.458;2022-10-28T00:21:27;34.00;;;9.80;;
69310;SDS011;56430;48.154;16.458;2022-10-28T00:23:57;24.17;;;8.15;;
69310;SDS011;56430;48.154;16.458;2022-10-28T00:26:25;28.58;;;8.35;;
69310;SDS011;56430;48.154;16.458;2022-10-28T00:28:57;20.70;;;8.90;;
69310;SDS011;56430;48.154;16.458;2022-10-28T00:31:26;20.25;;;9.30;;
69310;SDS011;56430;48.154;16.458;2022-10-28T00:33:57;20.08;;;9.13;;
69310;SDS011;56430;48.154;16.458;2022-10-28T00:36:26;21.77;;;9.10;;
69310;SDS011;56430;48.154;16.458;2022-10-28T00:38:54;22.27;;;8.65;;
69310;SDS011;56430;48.154;16.458;2022-10-28T00:41:24;23.90;;;8.13;;
69310;SDS011;56430;48.154;16.458;2022-10-28T00:43:54;23.50;;;8.30;;
69310;SDS011;56430;48.154;16.458;2022-10-28T00:46:24;26.08;;;9.45;;
69310;SDS011;56430;48.154;16.458;2022-10-28T00:48:56;18.55;;;8.05;;
69310;SDS011;56430;48.154;16.458;2022-10-28T00:51:25;19.20;;;7.38;;
69310;SDS011;56430;48.154;16.458;2022-10-28T00:53:53;23.87;;;9.43;;
69310;SDS011;56430;48.154;16.458;2022-10-28T00:56:23;20.45;;;8.40;;
69310;SDS011;56430;48.154;16.458;2022-10-28T00:58:53;19.95;;;7.95;;
69310;SDS011;56430;48.154;16.458;2022-10-28T01:01:22;24.33;;;9.50;;
69310;SDS011;56430;48.154;16.458;2022-10-28T01:03:49;20.85;;;8.95;;
69310;SDS011;56430;48.154;16.458;2022-10-28T01:06:17;22.90;;;9.97;;
69310;SDS011;56430;48.154;16.458;2022-10-28T01:08:44;50.15;;;10.30;;
69310;SDS011;56430;48.154;16.458;2022-10-28T01:11:15;23.10;;;10.25;;
69310;SDS011;56430;48.154;16.458;2022-10-28T01:13:55;24.75;;;9.35;;
69310;SDS011;56430;48.154;16.458;2022-10-28T01:16:32;18.42;;;8.00;;
69310;SDS011;56430;48.154;16.458;2022-10-28T01:19:08;23.33;;;9.30;;
69310;SDS011;56430;48.154;16.458;2022-10-28T01:22:06;20.65;;;8.93;;
69310;SDS011;56430;48.154;16.458;2022-10-28T01:24:49;22.30;;;9.90;;
69310;SDS011;56430;48.154;16.458;2022-10-28T01:30:35;24.25;;;9.73;;
69310;SDS011;56430;48.154;16.458;2022-10-28T01:33:12;22.43;;;9.70;;
69310;SDS011;56430;48.154;16.458;2022-10-28T01:35:44;22.83;;;10.40;;
69310;SDS011;56430;48.154;16.458;2022-10-28T01:38:18;19.40;;;9.23;;
69310;SDS011;56430;48.154;16.458;2022-10-28T01:40:54;30.40;;;9.85;;
69310;SDS011;56430;48.154;16.458;2022-10-28T01:43:25;23.13;;;9.55;;
69310;SDS011;56430;48.154;16.458;2022-10-28T01:45:56;19.60;;;8.77;;
69310;SDS011;56430;48.154;16.458;2022-10-28T01:48:28;19.65;;;9.32;;
69310;SDS011;56430;48.154;16.458;2022-10-28T01:50:59;19.02;;;8.85;;
69310;SDS011;56430;48.154;16.458;2022-10-28T01:53:30;23.10;;;9.27;;
69310;SDS011;56430;48.154;16.458;2022-10-28T01:56:02;22.08;;;9.63;;
69310;SDS011;56430;48.154;16.458;2022-10-28T01:58:32;20.30;;;9.37;;
69310;SDS011;56430;48.154;16.458;2022-10-28T02:01:01;24.42;;;9.63;;
69310;SDS011;56430;48.154;16.458;2022-10-28T02:03:32;20.67;;;8.98;;
69310;SDS011;56430;48.154;16.458;2022-10-28T02:06:00;20.92;;;9.13;;
69310;SDS011;56430;48.154;16.458;2022-10-28T02:08:32;23.92;;;9.25;;
69310;SDS011;56430;48.154;16.458;2022-10-28T02:11:14;21.13;;;8.83;;
69310;SDS011;56430;48.154;16.458;2022-10-28T02:13:56;25.90;;;9.88;;
69310;SDS011;56430;48.154;16.458;2022-10-28T02:16:27;24.67;;;9.38;;
69310;SDS011;56430;48.154;16.458;2022-10-28T02:19:02;19.73;;;8.82;;
69310;SDS011;56430;48.154;16.458;2022-10-28T02:21:36;20.10;;;9.48;;
69310;SDS011;56430;48.154;16.458;2022-10-28T02:24:10;17.07;;;8.17;;
69310;SDS011;56430;48.154;16.458;2022-10-28T02:26:42;20.33;;;8.50;;
69310;SDS011;56430;48.154;16.458;2022-10-28T02:29:14;20.85;;;8.80;;
69310;SDS011;56430;48.154;16.458;2022-10-28T02:31:47;21.35;;;9.32;;
69310;SDS011;56430;48.154;16.458;2022-10-28T02:34:18;20.65;;;8.85;;
69310;SDS011;56430;48.154;16.458;2022-10-28T02:36:48;17.97;;;9.17;;
69310;SDS011;56430;48.154;16.458;2022-10-28T02:39:17;19.77;;;7.85;;
69310;SDS011;56430;48.154;16.458;2022-10-28T02:41:49;17.88;;;8.50;;
69310;SDS011;56430;48.154;16.458;2022-10-28T02:44:18;19.35;;;8.82;;
69310;SDS011;56430;48.154;16.458;2022-10-28T02:46:49;23.23;;;8.82;;
69310;SDS011;56430;48.154;16.458;2022-10-28T02:49:18;18.93;;;8.30;;
69310;SDS011;56430;48.154;16.458;2022-10-28T02:51:47;18.35;;;8.85;;
69310;SDS011;56430;48.154;16.458;2022-10-28T02:54:19;19.00;;;7.63;;
69310;SDS011;56430;48.154;16.458;2022-10-28T02:56:50;18.05;;;8.60;;
69310;SDS011;56430;48.154;16.458;2022-10-28T02:59:19;15.43;;;8.15;;
69310;SDS011;56430;48.154;16.458;2022-10-28T03:01:49;20.30;;;8.70;;
69310;SDS011;56430;48.154;16.458;2022-10-28T03:04:18;15.98;;;7.65;;
69310;SDS011;56430;48.154;16.458;2022-10-28T03:06:45;18.13;;;8.00;;
69310;SDS011;56430;48.154;16.458;2022-10-28T03:09:12;19.08;;;8.25;;
69310;SDS011;56430;48.154;16.458;2022-10-28T03:11:40;16.73;;;8.35;;
69310;SDS011;56430;48.154;16.458;2022-10-28T03:14:07;19.20;;;8.17;;
69310;SDS011;56430;48.154;16.458;2022-10-28T03:16:34;17.30;;;7.63;;
69310;SDS011;56430;48.154;16.458;2022-10-28T03:19:01;17.17;;;8.57;;
69310;SDS011;56430;48.154;16.458;2022-10-28T03:21:30;20.77;;;8.00;;
69310;SDS011;56430;48.154;16.458;2022-10-28T03:23:57;16.65;;;7.50;;
69310;SDS011;56430;48.154;16.458;2022-10-28T03:26:24;17.00;;;7.90;;
69310;SDS011;56430;48.154;16.458;2022-10-28T03:28:51;16.98;;;8.02;;
69310;SDS011;56430;48.154;16.458;2022-10-28T03:31:19;17.25;;;8.07;;
69310;SDS011;56430;48.154;16.458;2022-10-28T03:33:46;14.40;;;7.93;;
69310;SDS011;56430;48.154;16.458;2022-10-28T03:36:13;13.52;;;6.18;;
69310;SDS011;56430;48.154;16.458;2022-10-28T03:38:42;14.40;;;6.57;;
69310;SDS011;56430;48.154;16.458;2022-10-28T03:41:09;14.77;;;7.47;;
69310;SDS011;56430;48.154;16.458;2022-10-28T03:43:36;14.57;;;6.53;;
69310;SDS011;56430;48.154;16.458;2022-10-28T03:46:03;17.27;;;7.90;;
69310;SDS011;56430;48.154;16.458;2022-10-28T03:48:31;12.50;;;5.80;;
69310;SDS011;56430;48.154;16.458;2022-10-28T03:50:58;12.47;;;6.30;;
69310;SDS011;56430;48.154;16.458;2022-10-28T03:53:25;14.27;;;6.50;;
69310;SDS011;56430;48.154;16.458;2022-10-28T03:55:54;12.57;;;6.60;;
69310;SDS011;56430;48.154;16.458;2022-10-28T03:58:22;16.15;;;7.28;;
69310;SDS011;56430;48.154;16.458;2022-10-28T04:00:50;15.30;;;7.20;;
69310;SDS011;56430;48.154;16.458;2022-10-28T04:03:19;12.73;;;6.27;;
69310;SDS011;56430;48.154;16.458;2022-10-28T04:05:47;13.57;;;6.68;;
69310;SDS011;56430;48.154;16.458;2022-10-28T04:08:15;15.10;;;7.78;;
69310;SDS011;56430;48.154;16.458;2022-10-28T04:10:42;16.50;;;8.00;;
69310;SDS011;56430;48.154;16.458;2022-10-28T04:13:11;17.48;;;7.88;;
69310;SDS011;56430;48.154;16.458;2022-10-28T04:15:38;13.10;;;6.53;;
69310;SDS011;56430;48.154;16.458;2022-10-28T04:18:05;15.40;;;7.35;;
69310;SDS011;56430;48.154;16.458;2022-10-28T04:20:33;15.18;;;7.70;;
69310;SDS011;56430;48.154;16.458;2022-10-28T04:23:00;16.42;;;6.75;;
69310;SDS011;56430;48.154;16.458;2022-10-28T04:25:27;16.88;;;7.95;;
69310;SDS011;56430;48.154;16.458;2022-10-28T04:27:55;15.87;;;7.90;;
69310;SDS011;56430;48.154;16.458;2022-10-28T04:30:23;14.73;;;7.35;;
69310;SDS011;56430;48.154;16.458;2022-10-28T04:32:51;18.20;;;8.15;;
69310;SDS011;56430;48.154;16.458;2022-10-28T04:35:18;14.48;;;7.47;;
69310;SDS011;56430;48.154;16.458;2022-10-28T04:37:45;15.15;;;7.35;;
69310;SDS011;56430;48.154;16.458;2022-10-28T04:40:12;13.83;;;6.63;;
69310;SDS011;56430;48.154;16.458;2022-10-28T04:42:40;17.10;;;7.53;;
69310;SDS011;56430;48.154;16.458;2022-10-28T04:45:07;14.60;;;6.60;;
69310;SDS011;56430;48.154;16.458;2022-10-28T04:47:36;15.48;;;7.03;;
69310;SDS011;56430;48.154;16.458;2022-10-28T04:50:04;15.30;;;6.68;;
69310;SDS011;56430;48.154;16.458;2022-10-28T04:52:32;16.27;;;7.30;;
69310;SDS011;56430;48.154;16.458;2022-10-28T04:54:59;13.68;;;6.25;;
69310;SDS011;56430;48.154;16.458;2022-10-28T04:57:26;15.00;;;6.30;;
69310;SDS011;56430;48.154;16.458;2022-10-28T04:59:53;14.98;;;7.10;;
69310;SDS011;56430;48.154;16.458;2022-10-28T05:02:20;16.48;;;7.28;;
69310;SDS011;56430;48.154;16.458;2022-10-28T05:04:49;15.03;;;7.23;;
69310;SDS011;56430;48.154;16.458;2022-10-28T05:07:16;15.48;;;7.07;;
69310;SDS011;56430;48.154;16.458;2022-10-28T05:09:43;15.30;;;7.18;;
69310;SDS011;56430;48.154;16.458;2022-10-28T05:12:11;15.10;;;6.78;;
69310;SDS011;56430;48.154;16.458;2022-10-28T05:14:38;15.13;;;6.82;;
69310;SDS011;56430;48.154;16.458;2022-10-28T05:17:06;15.30;;;7.17;;
69310;SDS011;56430;48.154;16.458;2022-10-28T05:19:34;16.77;;;7.25;;
69310;SDS011;56430;48.154;16.458;2022-10-28T05:22:02;14.65;;;7.30;;
69310;SDS011;56430;48.154;16.458;2022-10-28T05:24:30;14.85;;;6.97;;
69310;SDS011;56430;48.154;16.458;2022-10-28T05:26:57;15.73;;;6.88;;
69310;SDS011;56430;48.154;16.458;2022-10-28T05:29:25;17.37;;;7.43;;
69310;SDS011;56430;48.154;16.458;2022-10-28T05:31:52;12.23;;;5.78;;
69310;SDS011;56430;48.154;16.458;2022-10-28T05:34:19;14.98;;;6.75;;
69310;SDS011;56430;48.154;16.458;2022-10-28T05:36:46;14.90;;;6.53;;
69310;SDS011;56430;48.154;16.458;2022-10-28T05:39:16;15.50;;;7.40;;
69310;SDS011;56430;48.154;16.458;2022-10-28T05:41:44;17.03;;;7.00;;
69310;SDS011;56430;48.154;16.458;2022-10-28T05:44:11;16.30;;;7.32;;
69310;SDS011;56430;48.154;16.458;2022-10-28T05:46:38;17.23;;;7.80;;
69310;SDS011;56430;48.154;16.458;2022-10-28T05:49:05;16.42;;;8.02;;
69310;SDS011;56430;48.154;16.458;2022-10-28T05:51:32;16.48;;;8.43;;
69310;SDS011;56430;48.154;16.458;2022-10-28T05:54:00;15.37;;;6.97;;
69310;SDS011;56430;48.154;16.458;2022-10-28T05:56:28;15.43;;;6.82;;
69310;SDS011;56430;48.154;16.458;2022-10-28T05:58:55;15.82;;;7.00;;
69310;SDS011;56430;48.154;16.458;2022-10-28T06:01:23;14.85;;;6.90;;
69310;SDS011;56430;48.154;16.458;2022-10-28T06:03:50;19.00;;;7.65;;
69310;SDS011;56430;48.154;16.458;2022-10-28T06:06:17;15.63;;;7.33;;
69310;SDS011;56430;48.154;16.458;2022-10-28T06:08:44;15.82;;;6.82;;
69310;SDS011;56430;48.154;16.458;2022-10-28T06:11:12;20.23;;;7.70;;
69310;SDS011;56430;48.154;16.458;2022-10-28T06:13:40;18.45;;;7.63;;
69310;SDS011;56430;48.154;16.458;2022-10-28T06:16:07;15.13;;;7.45;;
69310;SDS011;56430;48.154;16.458;2022-10-28T06:18:35;18.47;;;7.30;;
69310;SDS011;56430;48.154;16.458;2022-10-28T06:21:02;15.43;;;7.45;;
69310;SDS011;56430;48.154;16.458;2022-10-28T06:23:30;15.88;;;7.50;;
69310;SDS011;56430;48.154;16.458;2022-10-28T06:25:57;15.90;;;7.25;;
69310;SDS011;56430;48.154;16.458;2022-10-28T06:28:25;16.02;;;7.68;;
69310;SDS011;56430;48.154;16.458;2022-10-28T06:30:54;14.30;;;6.50;;
69310;SDS011;56430;48.154;16.458;2022-10-28T06:33:29;17.33;;;6.95;;
69310;SDS011;56430;48.154;16.458;2022-10-28T06:35:57;17.08;;;6.80;;
69310;SDS011;56430;48.154;16.458;2022-10-28T06:38:25;18.48;;;8.18;;
69310;SDS011;56430;48.154;16.458;2022-10-28T06:40:52;18.63;;;7.72;;
69310;SDS011;56430;48.154;16.458;2022-10-28T06:43:20;17.00;;;7.73;;
69310;SDS011;56430;48.154;16.458;2022-10-28T06:45:47;18.00;;;7.93;;
69310;SDS011;56430;48.154;16.458;2022-10-28T06:48:21;16.55;;;7.57;;
69310;SDS011;56430;48.154;16.458;2022-10-28T06:50:48;19.63;;;8.25;;
69310;SDS011;56430;48.154;16.458;2022-10-28T06:53:16;16.10;;;7.65;;
69310;SDS011;56430;48.154;16.458;2022-10-28T06:55:43;15.63;;;7.47;;
69310;SDS011;56430;48.154;16.458;2022-10-28T06:58:13;16.77;;;7.20;;
69310;SDS011;56430;48.154;16.458;2022-10-28T07:00:40;16.77;;;7.80;;
69310;SDS011;56430;48.154;16.458;2022-10-28T07:03:07;15.80;;;7.05;;
69310;SDS011;56430;48.154;16.458;2022-10-28T07:05:36;14.63;;;6.70;;
69310;SDS011;56430;48.154;16.458;2022-10-28T07:08:04;13.13;;;5.53;;
69310;SDS011;56430;48.154;16.458;2022-10-28T07:10:31;13.25;;;5.63;;
69310;SDS011;56430;48.154;16.458;2022-10-28T07:12:59;14.07;;;6.07;;
69310;SDS011;56430;48.154;16.458;2022-10-28T07:15:26;12.00;;;5.60;;
69310;SDS011;56430;48.154;16.458;2022-10-28T07:17:53;12.68;;;6.15;;
69310;SDS011;56430;48.154;16.458;2022-10-28T07:20:21;11.27;;;5.40;;
69310;SDS011;56430;48.154;16.458;2022-10-28T07:22:55;12.68;;;5.43;;
69310;SDS011;56430;48.154;16.458;2022-10-28T07:25:22;15.35;;;6.72;;
69310;SDS011;56430;48.154;16.458;2022-10-28T07:27:49;13.52;;;6.05;;
69310;SDS011;56430;48.154;16.458;2022-10-28T07:30:17;15.63;;;6.13;;
69310;SDS011;56430;48.154;16.458;2022-10-28T07:32:44;13.20;;;6.03;;
69310;SDS011;56430;48.154;16.458;2022-10-28T07:35:11;12.52;;;5.82;;
69310;SDS011;56430;48.154;16.458;2022-10-28T07:37:38;12.27;;;6.07;;
69310;SDS011;56430;48.154;16.458;2022-10-28T07:40:07;12.48;;;6.30;;
69310;SDS011;56430;48.154;16.458;2022-10-28T07:42:35;14.55;;;6.95;;
69310;SDS011;56430;48.154;16.458;2022-10-28T07:45:02;15.17;;;6.80;;
69310;SDS011;56430;48.154;16.458;2022-10-28T07:47:30;16.33;;;7.25;;
69310;SDS011;56430;48.154;16.458;2022-10-28T07:49:57;16.83;;;6.70;;
69310;SDS011;56430;48.154;16.458;2022-10-28T07:52:25;15.80;;;7.15;;
69310;SDS011;56430;48.154;16.458;2022-10-28T07:54:52;14.50;;;6.70;;
69310;SDS011;56430;48.154;16.458;2022-10-28T07:57:20;13.07;;;6.20;;
69310;SDS011;56430;48.154;16.458;2022-10-28T07:59:48;15.32;;;6.07;;
69310;SDS011;56430;48.154;16.458;2022-10-28T08:02:16;13.50;;;5.88;;
69310;SDS011;56430;48.154;16.458;2022-10-28T08:04:43;12.20;;;5.60;;
69310;SDS011;56430;48.154;16.458;2022-10-28T08:07:11;13.52;;;5.60;;
69310;SDS011;56430;48.154;16.458;2022-10-28T08:09:39;12.77;;;5.87;;
69310;SDS011;56430;48.154;16.458;2022-10-28T08:12:07;11.40;;;5.45;;
69310;SDS011;56430;48.154;16.458;2022-10-28T08:14:36;11.20;;;5.50;;
69310;SDS011;56430;48.154;16.458;2022-10-28T08:17:03;12.45;;;5.75;;
69310;SDS011;56430;48.154;16.458;2022-10-28T08:19:30;12.70;;;5.78;;
69310;SDS011;56430;48.154;16.458;2022-10-28T08:21:57;11.63;;;5.70;;
69310;SDS011;56430;48.154;16.458;2022-10-28T08:24:26;11.30;;;5.78;;
69310;SDS011;56430;48.154;16.458;2022-10-28T08:26:54;12.38;;;5.88;;
69310;SDS011;56430;48.154;16.458;2022-10-28T08:29:21;11.88;;;5.47;;
69310;SDS011;56430;48.154;16.458;2022-10-28T08:31:50;12.13;;;5.45;;
69310;SDS011;56430;48.154;16.458;2022-10-28T08:34:17;11.83;;;5.57;;
69310;SDS011;56430;48.154;16.458;2022-10-28T08:36:44;12.18;;;5.97;;
69310;SDS011;56430;48.154;16.458;2022-10-28T08:39:11;13.27;;;6.57;;
69310;SDS011;56430;48.154;16.458;2022-10-28T08:41:39;13.70;;;5.72;;
69310;SDS011;56430;48.154;16.458;2022-10-28T08:47:06;12.20;;;6.50;;
69310;SDS011;56430;48.154;16.458;2022-10-28T08:49:39;13.48;;;6.65;;
69310;SDS011;56430;48.154;16.458;2022-10-28T08:52:10;12.63;;;6.95;;
69310;SDS011;56430;48.154;16.458;2022-10-28T08:54:47;14.20;;;6.55;;
69310;SDS011;56430;48.154;16.458;2022-10-28T08:57:17;12.45;;;6.13;;
69310;SDS011;56430;48.154;16.458;2022-10-28T08:59:48;13.43;;;6.37;;
69310;SDS011;56430;48.154;16.458;2022-10-28T09:02:18;12.07;;;5.90;;
69310;SDS011;56430;48.154;16.458;2022-10-28T09:04:48;12.57;;;5.88;;
69310;SDS011;56430;48.154;16.458;2022-10-28T09:07:17;13.30;;;6.30;;
69310;SDS011;56430;48.154;16.458;2022-10-28T09:09:47;12.88;;;5.85;;
69310;SDS011;56430;48.154;16.458;2022-10-28T09:12:19;12.37;;;6.17;;
69310;SDS011;56430;48.154;16.458;2022-10-28T09:17:52;10.15;;;5.07;;
69310;SDS011;56430;48.154;16.458;2022-10-28T09:20:23;10.60;;;5.05;;
69310;SDS011;56430;48.154;16.458;2022-10-28T09:22:55;11.57;;;5.20;;
69310;SDS011;56430;48.154;16.458;2022-10-28T09:25:29;12.93;;;5.67;;
69310;SDS011;56430;48.154;16.458;2022-10-28T09:28:02;12.57;;;5.50;;
69310;SDS011;56430;48.154;16.458;2022-10-28T09:30:38;12.98;;;5.80;;
69310;SDS011;56430;48.154;16.458;2022-10-28T09:33:20;12.05;;;4.93;;
69310;SDS011;56430;48.154;16.458;2022-10-28T09:35:52;10.40;;;5.20;;
69310;SDS011;56430;48.154;16.458;2022-10-28T09:38:23;12.63;;;6.13;;
69310;SDS011;56430;48.154;16.458;2022-10-28T09:40:53;12.38;;;5.80;;
69310;SDS011;56430;48.154;16.458;2022-10-28T09:43:26;13.07;;;5.93;;
69310;SDS011;56430;48.154;16.458;2022-10-28T09:45:57;10.93;;;5.28;;
69310;SDS011;56430;48.154;16.458;2022-10-28T09:48:29;13.73;;;6.22;;
69310;SDS011;56430;48.154;16.458;2022-10-28T09:50:57;12.53;;;6.50;;
69310;SDS011;56430;48.154;16.458;2022-10-28T09:53:28;11.70;;;6.28;;
69310;SDS011;56430;48.154;16.458;2022-10-28T09:55:59;13.07;;;6.38;;
69310;SDS011;56430;48.154;16.458;2022-10-28T09:58:28;12.77;;;6.28;;
69310;SDS011;56430;48.154;16.458;2022-10-28T10:00:57;14.50;;;7.25;;
69310;SDS011;56430;48.154;16.458;2022-10-28T10:03:25;13.03;;;6.57;;
69310;SDS011;56430;48.154;16.458;2022-10-28T10:05:54;13.30;;;7.07;;
69310;SDS011;56430;48.154;16.458;2022-10-28T10:08:22;12.15;;;6.28;;
69310;SDS011;56430;48.154;16.458;2022-10-28T10:10:51;13.07;;;6.40;;
69310;SDS011;56430;48.154;16.458;2022-10-28T10:13:21;14.85;;;6.57;;
69310;SDS011;56430;48.154;16.458;2022-10-28T10:15:51;15.00;;;6.50;;
69310;SDS011;56430;48.154;16.458;2022-10-28T10:18:21;14.18;;;6.30;;
69310;SDS011;56430;48.154;16.458;2022-10-28T10:20:51;12.68;;;5.95;;
69310;SDS011;56430;48.154;16.458;2022-10-28T10:23:22;14.55;;;6.28;;
69310;SDS011;56430;48.154;16.458;2022-10-28T10:25:53;14.40;;;6.70;;
69310;SDS011;56430;48.154;16.458;2022-10-28T10:28:21;11.17;;;6.20;;
69310;SDS011;56430;48.154;16.458;2022-10-28T10:30:50;10.65;;;5.00;;
69310;SDS011;56430;48.154;16.458;2022-10-28T10:33:19;16.13;;;7.78;;
69310;SDS011;56430;48.154;16.458;2022-10-28T10:35:52;13.82;;;6.82;;
69310;SDS011;56430;48.154;16.458;2022-10-28T10:38:19;13.88;;;6.35;;
69310;SDS011;56430;48.154;16.458;2022-10-28T10:40:49;14.33;;;6.83;;
69310;SDS011;56430;48.154;16.458;2022-10-28T10:43:21;13.52;;;6.70;;
69310;SDS011;56430;48.154;16.458;2022-10-28T10:45:58;13.07;;;6.93;;
69310;SDS011;56430;48.154;16.458;2022-10-28T10:48:27;12.02;;;6.70;;
69310;SDS011;56430;48.154;16.458;2022-10-28T10:50:54;13.50;;;6.78;;
69310;SDS011;56430;48.154;16.458;2022-10-28T10:53:24;13.77;;;7.10;;
69310;SDS011;56430;48.154;16.458;2022-10-28T10:55:53;14.55;;;7.20;;
69310;SDS011;56430;48.154;16.458;2022-10-28T10:58:22;14.55;;;7.03;;
69310;SDS011;56430;48.154;16.458;2022-10-28T11:00:51;15.63;;;7.13;;
69310;SDS011;56430;48.154;16.458;2022-10-28T11:03:20;14.80;;;6.65;;
69310;SDS011;56430;48.154;16.458;2022-10-28T11:05:50;15.17;;;7.30;;
69310;SDS011;56430;48.154;16.458;2022-10-28T11:08:30;15.77;;;6.88;;
69310;SDS011;56430;48.154;16.458;2022-10-28T11:11:02;17.15;;;8.02;;
69310;SDS011;56430;48.154;16.458;2022-10-28T11:13:31;14.07;;;7.15;;
69310;SDS011;56430;48.154;16.458;2022-10-28T11:16:00;15.30;;;7.45;;
69310;SDS011;56430;48.154;16.458;2022-10-28T11:18:28;16.90;;;7.27;;
69310;SDS011;56430;48.154;16.458;2022-10-28T11:21:06;14.50;;;7.47;;
69310;SDS011;56430;48.154;16.458;2022-10-28T11:23:42;14.95;;;7.45;;
69310;SDS011;56430;48.154;16.458;2022-10-28T11:26:14;13.13;;;6.70;;
69310;SDS011;56430;48.154;16.458;2022-10-28T11:28:45;14.43;;;6.90;;
69310;SDS011;56430;48.154;16.458;2022-10-28T11:31:22;13.50;;;7.17;;
69310;SDS011;56430;48.154;16.458;2022-10-28T11:34:08;11.80;;;6.63;;
69310;SDS011;56430;48.154;16.458;2022-10-28T11:36:41;13.35;;;6.78;;
69310;SDS011;56430;48.154;16.458;2022-10-28T11:39:17;13.77;;;6.47;;
69310;SDS011;56430;48.154;16.458;2022-10-28T11:41:52;14.57;;;6.35;;
69310;SDS011;56430;48.154;16.458;2022-10-28T11:44:38;14.87;;;7.67;;
69310;SDS011;56430;48.154;16.458;2022-10-28T11:47:14;16.13;;;7.78;;
69310;SDS011;56430;48.154;16.458;2022-10-28T11:50:06;16.80;;;7.68;;
69310;SDS011;56430;48.154;16.458;2022-10-28T11:52:48;13.85;;;7.03;;
69310;SDS011;56430;48.154;16.458;2022-10-28T11:55:26;15.55;;;7.35;;
69310;SDS011;56430;48.154;16.458;2022-10-28T11:58:03;17.50;;;6.73;;
69310;SDS011;56430;48.154;16.458;2022-10-28T12:00:42;14.02;;;6.60;;
69310;SDS011;56430;48.154;16.458;2022-10-28T12:06:01;15.00;;;7.65;;
69310;SDS011;56430;48.154;16.458;2022-10-28T12:08:35;15.65;;;7.03;;
69310;SDS011;56430;48.154;16.458;2022-10-28T12:11:15;15.97;;;7.10;;
69310;SDS011;56430;48.154;16.458;2022-10-28T12:13:49;16.75;;;8.23;;
69310;SDS011;56430;48.154;16.458;2022-10-28T12:16:24;17.90;;;7.95;;
69310;SDS011;56430;48.154;16.458;2022-10-28T12:18:57;15.00;;;7.63;;
69310;SDS011;56430;48.154;16.458;2022-10-28T12:21:26;16.70;;;7.50;;
69310;SDS011;56430;48.154;16.458;2022-10-28T12:23:57;13.07;;;7.07;;
69310;SDS011;56430;48.154;16.458;2022-10-28T12:26:29;17.67;;;7.28;;
69310;SDS011;56430;48.154;16.458;2022-10-28T12:28:59;16.30;;;7.28;;
69310;SDS011;56430;48.154;16.458;2022-10-28T12:31:29;16.85;;;7.82;;
69310;SDS011;56430;48.154;16.458;2022-10-28T12:33:59;14.43;;;7.70;;
69310;SDS011;56430;48.154;16.458;2022-10-28T12:36:30;18.17;;;8.37;;
69310;SDS011;56430;48.154;16.458;2022-10-28T12:39:00;14.95;;;7.70;;
69310;SDS011;56430;48.154;16.458;2022-10-28T12:41:41;19.85;;;7.57;;
69310;SDS011;56430;48.154;16.458;2022-10-28T12:44:11;17.33;;;7.40;;
69310;SDS011;56430;48.154;16.458;2022-10-28T12:46:42;13.35;;;6.72;;
69310;SDS011;56430;48.154;16.458;2022-10-28T12:49:15;14.87;;;7.23;;
69310;SDS011;56430;48.154;16.458;2022-10-28T12:51:46;15.38;;;7.65;;
69310;SDS011;56430;48.154;16.458;2022-10-28T12:54:16;14.52;;;7.63;;
69310;SDS011;56430;48.154;16.458;2022-10-28T12:56:49;16.25;;;7.88;;
69310;SDS011;56430;48.154;16.458;2022-10-28T12:59:20;15.48;;;8.20;;
69310;SDS011;56430;48.154;16.458;2022-10-28T13:01:50;13.90;;;7.20;;
69310;SDS011;56430;48.154;16.458;2022-10-28T13:04:17;14.30;;;6.93;;
69310;SDS011;56430;48.154;16.458;2022-10-28T13:09:52;15.77;;;7.72;;
69310;SDS011;56430;48.154;16.458;2022-10-28T13:12:33;18.30;;;9.93;;
69310;SDS011;56430;48.154;16.458;2022-10-28T13:18:05;13.38;;;7.00;;
69310;SDS011;56430;48.154;16.458;2022-10-28T13:20:52;15.35;;;6.95;;
69310;SDS011;56430;48.154;16.458;2022-10-28T13:23:28;12.00;;;5.95;;
69310;SDS011;56430;48.154;16.458;2022-10-28T13:26:04;14.15;;;6.75;;
69310;SDS011;56430;48.154;16.458;2022-10-28T13:28:42;12.07;;;6.37;;
69310;SDS011;56430;48.154;16.458;2022-10-28T13:31:11;13.27;;;6.70;;
69310;SDS011;56430;48.154;16.458;2022-10-28T13:33:45;12.48;;;6.45;;
69310;SDS011;56430;48.154;16.458;2022-10-28T13:36:15;14.02;;;6.75;;
69310;SDS011;56430;48.154;16.458;2022-10-28T13:38:47;10.88;;;5.72;;
69310;SDS011;56430;48.154;16.458;2022-10-28T13:41:27;12.97;;;6.27;;
69310;SDS011;56430;48.154;16.458;2022-10-28T13:50:12;12.55;;;6.47;;
69310;SDS011;56430;48.154;16.458;2022-10-28T13:52:41;17.50;;;7.28;;
69310;SDS011;56430;48.154;16.458;2022-10-28T13:55:23;12.37;;;6.80;;
69310;SDS011;56430;48.154;16.458;2022-10-28T13:57:56;14.57;;;6.10;;
69310;SDS011;56430;48.154;16.458;2022-10-28T14:00:33;16.63;;;6.78;;
69310;SDS011;56430;48.154;16.458;2022-10-28T14:03:02;13.32;;;6.72;;
69310;SDS011;56430;48.154;16.458;2022-10-28T14:11:06;14.48;;;6.85;;
69310;SDS011;56430;48.154;16.458;2022-10-28T14:13:34;13.93;;;7.20;;
69310;SDS011;56430;48.154;16.458;2022-10-28T14:16:15;14.95;;;6.38;;
69310;SDS011;56430;48.154;16.458;2022-10-28T14:18:51;13.57;;;6.32;;
69310;SDS011;56430;48.154;16.458;2022-10-28T14:21:19;12.53;;;5.60;;
69310;SDS011;56430;48.154;16.458;2022-10-28T14:24:05;15.25;;;6.47;;
69310;SDS011;56430;48.154;16.458;2022-10-28T14:30:11;14.32;;;6.40;;
69310;SDS011;56430;48.154;16.458;2022-10-28T14:32:55;15.55;;;6.60;;
69310;SDS011;56430;48.154;16.458;2022-10-28T14:35:25;15.73;;;6.87;;
69310;SDS011;56430;48.154;16.458;2022-10-28T14:41:25;14.05;;;6.63;;
69310;SDS011;56430;48.154;16.458;2022-10-28T14:44:04;16.52;;;7.00;;
69310;SDS011;56430;48.154;16.458;2022-10-28T14:46:43;15.10;;;7.40;;
69310;SDS011;56430;48.154;16.458;2022-10-28T14:49:22;16.60;;;7.30;;
69310;SDS011;56430;48.154;16.458;2022-10-28T14:51:51;17.40;;;6.78;;
69310;SDS011;56430;48.154;16.458;2022-10-28T14:54:21;13.85;;;6.80;;
69310;SDS011;56430;48.154;16.458;2022-10-28T14:56:53;13.30;;;6.43;;
69310;SDS011;56430;48.154;16.458;2022-10-28T14:59:25;15.35;;;7.15;;
69310;SDS011;56430;48.154;16.458;2022-10-28T15:01:58;19.07;;;8.50;;
69310;SDS011;56430;48.154;16.458;2022-10-28T15:04:28;14.40;;;6.88;;
69310;SDS011;56430;48.154;16.458;2022-10-28T15:06:55;16.63;;;7.13;;
69310;SDS011;56430;48.154;16.458;2022-10-28T15:09:24;13.88;;;6.65;;
69310;SDS011;56430;48.154;16.458;2022-10-28T15:11:54;14.20;;;6.47;;
69310;SDS011;56430;48.154;16.458;2022-10-28T15:14:25;13.30;;;6.87;;
69310;SDS011;56430;48.154;16.458;2022-10-28T15:16:57;17.10;;;7.60;;